Time,TemperatureF,DewpointF,PressureIn,WindDirection,WindDirectionDegrees,WindSpeedMPH,WindSpeedGustMPH,Humidity,HourlyPrecipIn,Conditions,Clouds,dailyrainin,SoftwareType,DateUTC
2013-05-06 00:01:00,53.8,29.4,29.38,ENE,70,0.0,0.0,39,0.00,,,0.00,Weather View 32 v70,2013-05-06 04:01:00,
2013-05-06 00:06:00,53.6,28.6,29.38,ENE,70,0.0,0.0,38,0.00,,,0.00,Weather View 32 v70,2013-05-06 04:06:00,
2013-05-06 00:11:00,53.4,29.0,29.38,ENE,70,0.0,0.0,39,0.00,,,0.00,Weather View 32 v70,2013-05-06 04:11:00,
2013-05-06 00:16:00,53.2,28.9,29.38,ENE,70,0.0,0.0,39,0.00,,,0.00,Weather View 32 v70,2013-05-06 04:16:00,
2013-05-06 00:21:00,53.1,28.7,29.38,ENE,70,0.0,0.0,39,0.00,,,0.00,Weather View 32 v70,2013-05-06 04:21:00,
2013-05-06 00:26:00,52.9,31.5,29.38,ENE,70,0.0,0.0,44,0.00,,,0.00,Weather View 32 v70,2013-05-06 04:26:00,
2013-05-06 00:31:00,52.3,32.1,29.38,ENE,70,0.0,0.0,46,0.00,,,0.00,Weather View 32 v70,2013-05-06 04:31:00,
2013-05-06 00:36:00,52.2,30.9,29.38,ENE,70,0.0,0.0,44,0.00,,,0.00,Weather View 32 v70,2013-05-06 04:36:00,
2013-05-06 00:41:00,52.2,30.9,29.38,ENE,70,0.0,0.0,44,0.00,,,0.00,Weather View 32 v70,2013-05-06 04:41:00,
2013-05-06 00:46:00,52.0,31.3,29.38,ENE,70,0.0,0.0,45,0.00,,,0.00,Weather View 32 v70,2013-05-06 04:46:00,
2013-05-06 00:51:00,52.0,30.7,29.38,ENE,70,0.0,0.0,44,0.00,,,0.00,Weather View 32 v70,2013-05-06 04:51:00,
2013-05-06 00:56:00,52.0,32.3,29.38,ENE,70,0.0,0.0,47,0.00,,,0.00,Weather View 32 v70,2013-05-06 04:56:00,
2013-05-06 01:01:00,51.6,32.0,29.38,ENE,70,0.0,0.0,47,0.00,,,0.00,Weather View 32 v70,2013-05-06 05:01:00,
2013-05-06 01:06:00,51.4,31.8,29.38,ENE,70,0.0,0.0,47,0.00,,,0.00,Weather View 32 v70,2013-05-06 05:06:00,
2013-05-06 01:11:00,51.3,31.7,29.38,ENE,70,0.0,0.0,47,0.00,,,0.00,Weather View 32 v70,2013-05-06 05:11:00,
2013-05-06 01:16:00,51.3,31.7,29.38,ENE,70,0.0,0.0,47,0.00,,,0.00,Weather View 32 v70,2013-05-06 05:16:00,
2013-05-06 01:21:00,51.1,32.0,29.38,ENE,70,0.0,0.0,48,0.00,,,0.00,Weather View 32 v70,2013-05-06 05:21:00,
2013-05-06 01:26:00,50.7,32.7,29.38,ENE,70,0.0,0.0,50,0.00,,,0.00,Weather View 32 v70,2013-05-06 05:26:00,
2013-05-06 01:31:00,50.0,33.0,29.38,ENE,70,0.0,0.0,52,0.00,,,0.00,Weather View 32 v70,2013-05-06 05:31:00,
2013-05-06 01:36:00,49.8,33.3,29.38,ENE,70,0.0,0.0,53,0.00,,,0.00,Weather View 32 v70,2013-05-06 05:36:00,
2013-05-06 01:41:00,49.5,33.0,29.38,ENE,70,0.0,0.0,53,0.00,,,0.00,Weather View 32 v70,2013-05-06 05:41:00,
2013-05-06 01:46:00,49.5,32.5,29.38,ENE,70,0.0,0.0,52,0.00,,,0.00,Weather View 32 v70,2013-05-06 05:46:00,
2013-05-06 01:51:00,49.6,32.2,29.38,ENE,70,0.0,0.0,51,0.00,,,0.00,Weather View 32 v70,2013-05-06 05:51:00,
2013-05-06 01:56:00,49.8,32.4,29.38,ENE,70,0.0,0.0,51,0.00,,,0.00,Weather View 32 v70,2013-05-06 05:56:00,
2013-05-06 02:01:00,49.8,32.4,29.38,ENE,70,0.0,0.0,51,0.00,,,0.00,Weather View 32 v70,2013-05-06 06:01:00,
2013-05-06 02:06:00,49.8,32.4,29.38,ENE,70,0.0,0.0,51,0.00,,,0.00,Weather View 32 v70,2013-05-06 06:06:00,
2013-05-06 02:11:00,49.5,32.5,29.38,ENE,70,0.0,0.0,52,0.00,,,0.00,Weather View 32 v70,2013-05-06 06:11:00,
2013-05-06 02:16:00,49.3,32.8,29.38,ENE,70,0.0,0.0,53,0.00,,,0.00,Weather View 32 v70,2013-05-06 06:16:00,
2013-05-06 02:21:00,49.3,32.4,29.38,ENE,70,0.0,0.0,52,0.00,,,0.00,Weather View 32 v70,2013-05-06 06:21:00,
2013-05-06 02:26:00,49.1,32.2,29.38,ENE,70,0.0,0.0,52,0.00,,,0.00,Weather View 32 v70,2013-05-06 06:26:00,
2013-05-06 02:31:00,49.1,32.2,29.38,ENE,70,0.0,0.0,52,0.00,,,0.00,Weather View 32 v70,2013-05-06 06:31:00,
2013-05-06 02:36:00,49.1,32.7,29.38,ENE,70,0.0,0.0,53,0.00,,,0.00,Weather View 32 v70,2013-05-06 06:36:00,
2013-05-06 02:41:00,48.7,33.3,29.38,ENE,70,0.0,0.0,55,0.00,,,0.00,Weather View 32 v70,2013-05-06 06:41:00,
2013-05-06 02:46:00,48.7,33.7,29.38,ENE,70,0.0,0.0,56,0.00,,,0.00,Weather View 32 v70,2013-05-06 06:46:00,
2013-05-06 02:51:00,48.4,33.8,29.38,ENE,70,0.0,0.0,57,0.00,,,0.00,Weather View 32 v70,2013-05-06 06:51:00,
2013-05-06 02:56:00,48.2,33.7,29.38,ENE,70,0.0,0.0,57,0.00,,,0.00,Weather View 32 v70,2013-05-06 06:56:00,
2013-05-06 03:01:00,48.2,33.7,29.38,ENE,70,0.0,0.0,57,0.00,,,0.00,Weather View 32 v70,2013-05-06 07:01:00,
2013-05-06 03:06:00,48.2,33.2,29.38,ENE,70,0.0,0.0,56,0.00,,,0.00,Weather View 32 v70,2013-05-06 07:06:00,
2013-05-06 03:11:00,48.0,33.0,29.38,ENE,70,0.0,0.0,56,0.00,,,0.00,Weather View 32 v70,2013-05-06 07:11:00,
2013-05-06 03:16:00,47.8,32.9,29.38,ENE,70,0.0,0.0,56,0.00,,,0.00,Weather View 32 v70,2013-05-06 07:16:00,
2013-05-06 03:21:00,47.8,33.3,29.35,ENE,70,0.0,0.0,57,0.00,,,0.00,Weather View 32 v70,2013-05-06 07:21:00,
2013-05-06 03:26:00,47.8,33.3,29.35,ENE,70,0.0,0.0,57,0.00,,,0.00,Weather View 32 v70,2013-05-06 07:26:00,
2013-05-06 03:31:00,47.8,33.3,29.35,ENE,70,0.0,0.0,57,0.00,,,0.00,Weather View 32 v70,2013-05-06 07:31:00,
2013-05-06 03:36:00,47.8,33.3,29.38,ENE,70,0.0,0.0,57,0.00,,,0.00,Weather View 32 v70,2013-05-06 07:36:00,
2013-05-06 03:41:00,47.7,32.7,29.38,ENE,70,0.0,0.0,56,0.00,,,0.00,Weather View 32 v70,2013-05-06 07:41:00,
2013-05-06 03:46:00,47.5,33.0,29.38,ENE,70,0.0,0.0,57,0.00,,,0.00,Weather View 32 v70,2013-05-06 07:46:00,
2013-05-06 03:51:00,47.1,33.5,29.38,ENE,70,0.0,0.0,59,0.00,,,0.00,Weather View 32 v70,2013-05-06 07:51:00,
2013-05-06 03:56:00,46.8,33.2,29.38,ENE,70,0.0,0.0,59,0.00,,,0.00,Weather View 32 v70,2013-05-06 07:56:00,
2013-05-06 04:01:00,46.8,33.6,29.38,ENE,70,0.0,0.0,60,0.00,,,0.00,Weather View 32 v70,2013-05-06 08:01:00,
2013-05-06 04:06:00,46.8,33.2,29.38,ENE,70,0.0,0.0,59,0.00,,,0.00,Weather View 32 v70,2013-05-06 08:06:00,
2013-05-06 04:11:00,46.8,33.2,29.38,ENE,70,0.0,0.0,59,0.00,,,0.00,Weather View 32 v70,2013-05-06 08:11:00,
2013-05-06 04:16:00,46.4,33.2,29.38,ENE,70,0.0,0.0,60,0.00,,,0.00,Weather View 32 v70,2013-05-06 08:16:00,
2013-05-06 04:21:00,46.2,33.5,29.38,ENE,70,0.0,0.0,61,0.00,,,0.00,Weather View 32 v70,2013-05-06 08:21:00,
2013-05-06 04:26:00,46.0,33.3,29.38,ENE,70,0.0,0.0,61,0.00,,,0.00,Weather View 32 v70,2013-05-06 08:26:00,
2013-05-06 04:31:00,45.7,33.8,29.38,ENE,70,0.0,0.0,63,0.00,,,0.00,Weather View 32 v70,2013-05-06 08:31:00,
2013-05-06 04:36:00,45.3,33.4,29.38,ENE,70,0.0,0.0,63,0.00,,,0.00,Weather View 32 v70,2013-05-06 08:36:00,
2013-05-06 04:41:00,45.5,33.6,29.38,ENE,70,0.0,0.0,63,0.00,,,0.00,Weather View 32 v70,2013-05-06 08:41:00,
2013-05-06 04:46:00,45.5,33.6,29.38,ENE,70,0.0,0.0,63,0.00,,,0.00,Weather View 32 v70,2013-05-06 08:46:00,
2013-05-06 04:51:00,45.5,33.6,29.38,ENE,70,0.0,0.0,63,0.00,,,0.00,Weather View 32 v70,2013-05-06 08:51:00,
2013-05-06 04:56:00,45.5,33.6,29.38,ENE,70,0.0,0.0,63,0.00,,,0.00,Weather View 32 v70,2013-05-06 08:56:00,
2013-05-06 05:01:00,45.5,33.6,29.38,ENE,70,0.0,0.0,63,0.00,,,0.00,Weather View 32 v70,2013-05-06 09:01:00,
2013-05-06 05:06:00,45.1,34.1,29.38,ENE,70,0.0,0.0,65,0.00,,,0.00,Weather View 32 v70,2013-05-06 09:06:00,
2013-05-06 05:11:00,44.8,33.7,29.38,ENE,70,0.0,0.0,65,0.00,,,0.00,Weather View 32 v70,2013-05-06 09:11:00,
2013-05-06 05:16:00,44.6,33.9,29.38,ENE,70,0.0,0.0,66,0.00,,,0.00,Weather View 32 v70,2013-05-06 09:16:00,
2013-05-06 05:21:00,44.6,33.9,29.38,ENE,70,0.0,0.0,66,0.00,,,0.00,Weather View 32 v70,2013-05-06 09:21:00,
2013-05-06 05:26:00,44.6,33.9,29.38,ENE,70,0.0,0.0,66,0.00,,,0.00,Weather View 32 v70,2013-05-06 09:26:00,
2013-05-06 05:31:00,44.8,34.1,29.38,ENE,70,0.0,0.0,66,0.00,,,0.00,Weather View 32 v70,2013-05-06 09:31:00,
2013-05-06 05:36:00,44.6,33.9,29.38,ENE,70,0.0,0.0,66,0.00,,,0.00,Weather View 32 v70,2013-05-06 09:36:00,
2013-05-06 05:41:00,43.7,32.7,29.38,ENE,70,0.0,0.0,65,0.00,,,0.00,Weather View 32 v70,2013-05-06 09:41:00,
2013-05-06 05:46:00,43.3,33.1,29.38,ENE,70,0.0,0.0,67,0.00,,,0.00,Weather View 32 v70,2013-05-06 09:46:00,
2013-05-06 05:51:00,43.3,33.5,29.38,ENE,70,0.0,0.0,68,0.00,,,0.00,Weather View 32 v70,2013-05-06 09:51:00,
2013-05-06 05:56:00,43.3,33.5,29.38,ENE,70,0.0,0.0,68,0.00,,,0.00,Weather View 32 v70,2013-05-06 09:56:00,
2013-05-06 06:01:00,43.7,33.8,29.38,ENE,70,0.0,0.0,68,0.00,,,0.00,Weather View 32 v70,2013-05-06 10:01:00,
2013-05-06 06:06:00,43.3,33.8,29.38,ENE,70,0.0,0.0,69,0.00,,,0.00,Weather View 32 v70,2013-05-06 10:06:00,
2013-05-06 06:11:00,43.3,33.8,29.38,ENE,70,0.0,0.0,69,0.00,,,0.00,Weather View 32 v70,2013-05-06 10:11:00,
2013-05-06 06:16:00,43.5,34.0,29.38,ENE,70,0.0,0.0,69,0.00,,,0.00,Weather View 32 v70,2013-05-06 10:16:00,
2013-05-06 06:21:00,43.3,33.8,29.38,ENE,70,0.0,0.0,69,0.00,,,0.00,Weather View 32 v70,2013-05-06 10:21:00,
2013-05-06 06:26:00,43.2,33.7,29.38,ENE,70,0.0,0.0,69,0.00,,,0.00,Weather View 32 v70,2013-05-06 10:26:00,
2013-05-06 06:31:00,43.2,34.0,29.38,ENE,70,0.0,0.0,70,0.00,,,0.00,Weather View 32 v70,2013-05-06 10:31:00,
2013-05-06 06:36:00,43.3,34.2,29.38,ENE,70,0.0,0.0,70,0.00,,,0.00,Weather View 32 v70,2013-05-06 10:36:00,
2013-05-06 06:41:00,43.3,34.2,29.38,ENE,70,0.0,0.0,70,0.00,,,0.00,Weather View 32 v70,2013-05-06 10:41:00,
2013-05-06 06:46:00,43.5,34.4,29.38,ENE,70,0.0,0.0,70,0.00,,,0.00,Weather View 32 v70,2013-05-06 10:46:00,
2013-05-06 06:51:00,43.3,34.2,29.38,ENE,70,0.0,0.0,70,0.00,,,0.00,Weather View 32 v70,2013-05-06 10:51:00,
2013-05-06 06:56:00,43.3,34.6,29.38,ENE,70,0.0,0.0,71,0.00,,,0.00,Weather View 32 v70,2013-05-06 10:56:00,
2013-05-06 07:01:00,43.7,34.9,29.38,ENE,70,0.0,0.0,71,0.00,,,0.00,Weather View 32 v70,2013-05-06 11:01:00,
2013-05-06 07:06:00,43.9,35.1,29.38,ENE,70,0.0,0.0,71,0.00,,,0.00,Weather View 32 v70,2013-05-06 11:06:00,
2013-05-06 07:11:00,44.1,34.9,29.38,ENE,70,0.0,0.0,70,0.00,,,0.00,Weather View 32 v70,2013-05-06 11:11:00,
2013-05-06 07:16:00,44.2,35.1,29.38,ENE,70,0.0,0.0,70,0.00,,,0.00,Weather View 32 v70,2013-05-06 11:16:00,
2013-05-06 07:21:00,44.4,35.2,29.38,ENE,70,0.0,0.0,70,0.00,,,0.00,Weather View 32 v70,2013-05-06 11:21:00,
2013-05-06 07:26:00,44.6,35.4,29.38,ENE,70,0.0,0.0,70,0.00,,,0.00,Weather View 32 v70,2013-05-06 11:26:00,
2013-05-06 07:31:00,44.8,35.6,29.38,ENE,70,0.0,0.0,70,0.00,,,0.00,Weather View 32 v70,2013-05-06 11:31:00,
2013-05-06 07:36:00,45.0,35.8,29.38,ENE,70,0.0,0.0,70,0.00,,,0.00,Weather View 32 v70,2013-05-06 11:36:00,
2013-05-06 07:41:00,45.1,36.3,29.38,ENE,70,0.0,0.0,71,0.00,,,0.00,Weather View 32 v70,2013-05-06 11:41:00,
2013-05-06 07:46:00,45.1,36.3,29.38,ENE,70,0.0,0.0,71,0.00,,,0.00,Weather View 32 v70,2013-05-06 11:46:00,
2013-05-06 07:51:00,45.5,36.6,29.38,ENE,70,0.0,0.0,71,0.00,,,0.00,Weather View 32 v70,2013-05-06 11:51:00,
2013-05-06 07:56:00,45.9,37.0,29.38,ENE,70,0.0,0.0,71,0.00,,,0.00,Weather View 32 v70,2013-05-06 11:56:00,
2013-05-06 08:01:00,46.2,37.3,29.38,ENE,70,0.0,0.0,71,0.00,,,0.00,Weather View 32 v70,2013-05-06 12:01:00,
2013-05-06 08:06:00,46.6,37.7,29.41,ENE,70,0.0,0.0,71,0.00,,,0.00,Weather View 32 v70,2013-05-06 12:06:00,
2013-05-06 08:11:00,47.1,38.2,29.41,ENE,70,0.0,0.0,71,0.00,,,0.00,Weather View 32 v70,2013-05-06 12:11:00,
2013-05-06 08:16:00,47.5,38.5,29.41,ENE,70,0.0,0.0,71,0.00,,,0.00,Weather View 32 v70,2013-05-06 12:16:00,
2013-05-06 08:21:00,48.0,38.7,29.41,ENE,70,0.0,0.0,70,0.00,,,0.00,Weather View 32 v70,2013-05-06 12:21:00,
2013-05-06 08:26:00,48.6,39.2,29.41,ENE,70,0.0,0.0,70,0.00,,,0.00,Weather View 32 v70,2013-05-06 12:26:00,
2013-05-06 08:31:00,49.1,39.4,29.41,ENE,70,0.0,0.0,69,0.00,,,0.00,Weather View 32 v70,2013-05-06 12:31:00,
2013-05-06 08:36:00,49.6,39.5,29.41,ESE,104,2.0,0.0,68,0.00,,,0.00,Weather View 32 v70,2013-05-06 12:36:00,
2013-05-06 08:41:00,50.5,39.2,29.41,East,100,0.0,3.0,65,0.00,,,0.00,Weather View 32 v70,2013-05-06 12:41:00,
2013-05-06 08:46:00,51.3,37.0,29.41,East,88,0.0,3.0,58,0.00,,,0.00,Weather View 32 v70,2013-05-06 12:46:00,
2013-05-06 08:51:00,52.2,35.5,29.41,East,91,0.0,3.0,53,0.00,,,0.00,Weather View 32 v70,2013-05-06 12:51:00,
2013-05-06 08:56:00,53.1,32.8,29.41,East,81,3.0,4.0,46,0.00,,,0.00,Weather View 32 v70,2013-05-06 12:56:00,
2013-05-06 09:01:00,54.1,33.2,29.41,East,100,3.0,4.0,45,0.00,,,0.00,Weather View 32 v70,2013-05-06 13:01:00,
2013-05-06 09:06:00,54.9,32.7,29.41,ESE,116,3.0,4.0,43,0.00,,,0.00,Weather View 32 v70,2013-05-06 13:06:00,
2013-05-06 09:11:00,55.6,32.2,29.41,ESE,104,2.0,4.0,41,0.00,,,0.00,Weather View 32 v70,2013-05-06 13:11:00,
2013-05-06 09:16:00,56.3,31.0,29.41,SE,129,0.0,4.0,38,0.00,,,0.00,Weather View 32 v70,2013-05-06 13:16:00,
2013-05-06 09:21:00,57.0,30.9,29.41,ESE,115,3.0,4.0,37,0.00,,,0.00,Weather View 32 v70,2013-05-06 13:21:00,
2013-05-06 09:26:00,57.6,31.4,29.41,ESE,110,2.0,4.0,37,0.00,,,0.00,Weather View 32 v70,2013-05-06 13:26:00,
2013-05-06 09:31:00,58.1,31.2,29.41,ESE,110,0.0,4.0,36,0.00,,,0.00,Weather View 32 v70,2013-05-06 13:31:00,
2013-05-06 09:36:00,59.0,32.0,29.41,ENE,69,2.0,4.0,36,0.00,,,0.00,Weather View 32 v70,2013-05-06 13:36:00,
2013-05-06 09:41:00,59.5,30.3,29.41,East,94,3.0,6.0,33,0.00,,,0.00,Weather View 32 v70,2013-05-06 13:41:00,
2013-05-06 09:46:00,60.3,30.2,29.41,ESE,106,2.0,6.0,32,0.00,,,0.00,Weather View 32 v70,2013-05-06 13:46:00,
2013-05-06 09:51:00,61.0,30.8,29.41,ESE,104,2.0,6.0,32,0.00,,,0.00,Weather View 32 v70,2013-05-06 13:51:00,
2013-05-06 09:56:00,61.7,28.2,29.41,ESE,104,3.0,6.0,28,0.00,,,0.00,Weather View 32 v70,2013-05-06 13:56:00,
2013-05-06 10:01:00,62.2,26.9,29.41,SE,144,0.0,6.0,26,0.00,,,0.00,Weather View 32 v70,2013-05-06 14:01:00,
2013-05-06 10:06:00,62.8,27.3,29.41,ESE,108,4.0,6.0,26,0.00,,,0.00,Weather View 32 v70,2013-05-06 14:06:00,
2013-05-06 10:11:00,63.5,29.7,29.41,ESE,109,3.0,6.0,28,0.00,,,0.00,Weather View 32 v70,2013-05-06 14:11:00,
2013-05-06 10:16:00,64.4,27.7,29.41,ESE,107,4.0,6.0,25,0.00,,,0.00,Weather View 32 v70,2013-05-06 14:16:00,
2013-05-06 10:21:00,65.1,28.3,29.41,East,85,4.0,6.0,25,0.00,,,0.00,Weather View 32 v70,2013-05-06 14:21:00,
2013-05-06 10:26:00,65.5,27.7,29.41,SE,133,4.0,6.0,24,0.00,,,0.00,Weather View 32 v70,2013-05-06 14:26:00,
2013-05-06 10:31:00,65.8,28.0,29.41,ESE,106,4.0,6.0,24,0.00,,,0.00,Weather View 32 v70,2013-05-06 14:31:00,
2013-05-06 10:36:00,66.7,28.7,29.41,SSE,147,3.0,6.0,24,0.00,,,0.00,Weather View 32 v70,2013-05-06 14:36:00,
2013-05-06 10:41:00,67.3,28.1,29.41,ESE,110,2.0,5.0,23,0.00,,,0.00,Weather View 32 v70,2013-05-06 14:41:00,
2013-05-06 10:46:00,68.0,28.7,29.41,ESE,108,0.0,5.0,23,0.00,,,0.00,Weather View 32 v70,2013-05-06 14:46:00,
2013-05-06 10:51:00,68.9,29.5,29.41,ESE,113,3.0,5.0,23,0.00,,,0.00,Weather View 32 v70,2013-05-06 14:51:00,
2013-05-06 10:56:00,69.4,28.9,29.41,East,84,3.0,5.0,22,0.00,,,0.00,Weather View 32 v70,2013-05-06 14:56:00,
2013-05-06 11:01:00,69.6,29.0,29.41,ENE,70,3.0,5.0,22,0.00,,,0.00,Weather View 32 v70,2013-05-06 15:01:00,
2013-05-06 11:06:00,70.3,29.6,29.41,NE,42,0.0,5.0,22,0.00,,,0.00,Weather View 32 v70,2013-05-06 15:06:00,
2013-05-06 11:11:00,71.1,30.2,29.41,ESE,112,2.0,5.0,22,0.00,,,0.00,Weather View 32 v70,2013-05-06 15:11:00,
2013-05-06 11:16:00,71.2,29.2,29.41,ENE,62,4.0,5.0,21,0.00,,,0.00,Weather View 32 v70,2013-05-06 15:16:00,
2013-05-06 11:21:00,71.8,30.8,29.41,ESE,120,4.0,5.0,22,0.00,,,0.00,Weather View 32 v70,2013-05-06 15:21:00,
2013-05-06 11:26:00,72.3,30.1,29.41,ENE,76,3.0,5.0,21,0.00,,,0.00,Weather View 32 v70,2013-05-06 15:26:00,
2013-05-06 11:31:00,72.9,30.5,29.41,East,81,0.0,5.0,21,0.00,,,0.00,Weather View 32 v70,2013-05-06 15:31:00,
2013-05-06 11:36:00,73.4,31.0,29.41,ENE,71,3.0,5.0,21,0.00,,,0.00,Weather View 32 v70,2013-05-06 15:36:00,
2013-05-06 11:41:00,74.1,31.6,29.41,ENE,62,4.0,5.0,21,0.00,,,0.00,Weather View 32 v70,2013-05-06 15:41:00,
2013-05-06 11:46:00,74.3,30.5,29.41,SE,127,0.0,5.0,20,0.00,,,0.00,Weather View 32 v70,2013-05-06 15:46:00,
2013-05-06 11:51:00,74.5,28.1,29.38,East,99,2.0,5.0,18,0.00,,,0.00,Weather View 32 v70,2013-05-06 15:51:00,
2013-05-06 11:56:00,74.5,28.1,29.38,ESE,112,4.0,5.0,18,0.00,,,0.00,Weather View 32 v70,2013-05-06 15:56:00,
2013-05-06 12:01:00,74.8,28.4,29.38,ENE,72,3.0,5.0,18,0.00,,,0.00,Weather View 32 v70,2013-05-06 16:01:00,
2013-05-06 12:06:00,75.4,28.8,29.38,ENE,71,4.0,5.0,18,0.00,,,0.00,Weather View 32 v70,2013-05-06 16:06:00,
2013-05-06 12:11:00,75.4,28.8,29.38,East,81,4.0,5.0,18,0.00,,,0.00,Weather View 32 v70,2013-05-06 16:11:00,
2013-05-06 12:16:00,75.7,31.7,29.38,North,4,0.0,6.0,20,0.00,,,0.00,Weather View 32 v70,2013-05-06 16:16:00,
2013-05-06 12:21:00,75.7,29.1,29.38,NE,52,0.0,6.0,18,0.00,,,0.00,Weather View 32 v70,2013-05-06 16:21:00,
2013-05-06 12:26:00,75.6,29.0,29.38,ENE,58,0.0,6.0,18,0.00,,,0.00,Weather View 32 v70,2013-05-06 16:26:00,
2013-05-06 12:31:00,75.7,29.1,29.38,East,81,5.0,6.0,18,0.00,,,0.00,Weather View 32 v70,2013-05-06 16:31:00,
2013-05-06 12:36:00,75.6,29.0,29.38,East,81,0.0,6.0,18,0.00,,,0.00,Weather View 32 v70,2013-05-06 16:36:00,
2013-05-06 12:41:00,76.1,29.4,29.38,ENE,63,3.0,6.0,18,0.00,,,0.00,Weather View 32 v70,2013-05-06 16:41:00,
2013-05-06 12:46:00,76.3,25.1,29.38,ENE,69,3.0,6.0,15,0.00,,,0.00,Weather View 32 v70,2013-05-06 16:46:00,
2013-05-06 12:51:00,76.6,29.9,29.38,ENE,69,4.0,6.0,18,0.00,,,0.00,Weather View 32 v70,2013-05-06 16:51:00,
2013-05-06 12:56:00,77.4,30.4,29.38,East,79,0.0,6.0,18,0.00,,,0.00,Weather View 32 v70,2013-05-06 16:56:00,
2013-05-06 13:01:00,78.3,29.8,29.38,NE,56,0.0,6.0,17,0.00,,,0.00,Weather View 32 v70,2013-05-06 17:01:00,
2013-05-06 13:06:00,78.4,29.9,29.38,ESE,110,4.0,6.0,17,0.00,,,0.00,Weather View 32 v70,2013-05-06 17:06:00,
2013-05-06 13:11:00,78.3,29.8,29.38,ENE,71,0.0,6.0,17,0.00,,,0.00,Weather View 32 v70,2013-05-06 17:11:00,
2013-05-06 13:16:00,78.8,30.2,29.38,East,95,0.0,7.0,17,0.00,,,0.00,Weather View 32 v70,2013-05-06 17:16:00,
2013-05-06 13:21:00,79.2,30.5,29.38,NE,49,0.0,7.0,17,0.00,,,0.00,Weather View 32 v70,2013-05-06 17:21:00,
2013-05-06 13:26:00,79.5,30.8,29.38,ENE,60,2.0,7.0,17,0.00,,,0.00,Weather View 32 v70,2013-05-06 17:26:00,
2013-05-06 13:31:00,80.1,31.2,29.38,ESE,110,3.0,7.0,17,0.00,,,0.00,Weather View 32 v70,2013-05-06 17:31:00,
2013-05-06 13:36:00,80.2,31.4,29.38,ESE,108,5.0,7.0,17,0.00,,,0.00,Weather View 32 v70,2013-05-06 17:36:00,
2013-05-06 13:41:00,80.4,31.5,29.38,SE,126,0.0,8.0,17,0.00,,,0.00,Weather View 32 v70,2013-05-06 17:41:00,
2013-05-06 13:46:00,81.0,31.9,29.38,NE,37,0.0,8.0,17,0.00,,,0.00,Weather View 32 v70,2013-05-06 17:46:00,
2013-05-06 13:51:00,81.0,27.2,29.35,ENE,71,4.0,8.0,14,0.00,,,0.00,Weather View 32 v70,2013-05-06 17:51:00,
2013-05-06 13:56:00,80.8,27.0,29.35,ENE,68,3.0,8.0,14,0.00,,,0.00,Weather View 32 v70,2013-05-06 17:56:00,
2013-05-06 14:01:00,81.0,27.2,29.35,ESE,117,4.0,8.0,14,0.00,,,0.00,Weather View 32 v70,2013-05-06 18:01:00,
2013-05-06 14:06:00,81.0,27.2,29.35,ESE,113,3.0,8.0,14,0.00,,,0.00,Weather View 32 v70,2013-05-06 18:06:00,
2013-05-06 14:11:00,80.6,26.9,29.35,ESE,114,4.0,8.0,14,0.00,,,0.00,Weather View 32 v70,2013-05-06 18:11:00,
2013-05-06 14:16:00,80.4,26.7,29.35,East,79,4.0,8.0,14,0.00,,,0.00,Weather View 32 v70,2013-05-06 18:16:00,
2013-05-06 14:21:00,80.1,31.2,29.35,ESE,114,3.0,8.0,17,0.00,,,0.00,Weather View 32 v70,2013-05-06 18:21:00,
2013-05-06 14:26:00,80.6,31.6,29.35,NNW,330,2.0,8.0,17,0.00,,,0.00,Weather View 32 v70,2013-05-06 18:26:00,
2013-05-06 14:31:00,80.8,31.8,29.35,ESE,109,0.0,8.0,17,0.00,,,0.00,Weather View 32 v70,2013-05-06 18:31:00,
2013-05-06 14:36:00,81.0,31.9,29.35,ENE,67,6.0,8.0,17,0.00,,,0.00,Weather View 32 v70,2013-05-06 18:36:00,
2013-05-06 14:41:00,80.4,26.7,29.35,ESE,113,4.0,6.0,14,0.00,,,0.00,Weather View 32 v70,2013-05-06 18:41:00,
2013-05-06 14:46:00,80.1,26.5,29.35,ESE,119,4.0,6.0,14,0.00,,,0.00,Weather View 32 v70,2013-05-06 18:46:00,
2013-05-06 14:51:00,79.7,30.9,29.35,ESE,105,4.0,6.0,17,0.00,,,0.00,Weather View 32 v70,2013-05-06 18:51:00,
2013-05-06 14:56:00,79.9,26.3,29.35,East,87,4.0,6.0,14,0.00,,,0.00,Weather View 32 v70,2013-05-06 18:56:00,
2013-05-06 15:01:00,79.9,26.3,29.35,ENE,76,3.0,6.0,14,0.00,,,0.00,Weather View 32 v70,2013-05-06 19:01:00,
2013-05-06 15:06:00,79.7,26.2,29.35,ENE,66,3.0,6.0,14,0.00,,,0.00,Weather View 32 v70,2013-05-06 19:06:00,
2013-05-06 15:11:00,79.5,27.7,29.35,ENE,76,3.0,6.0,15,0.00,,,0.00,Weather View 32 v70,2013-05-06 19:11:00,
2013-05-06 15:16:00,79.2,30.5,29.35,NE,48,0.0,6.0,17,0.00,,,0.00,Weather View 32 v70,2013-05-06 19:16:00,
2013-05-06 15:21:00,79.0,30.3,29.35,SE,124,4.0,6.0,17,0.00,,,0.00,Weather View 32 v70,2013-05-06 19:21:00,
2013-05-06 15:26:00,78.4,26.8,29.35,ENE,60,4.0,8.0,15,0.00,,,0.00,Weather View 32 v70,2013-05-06 19:26:00,
2013-05-06 15:31:00,78.3,29.8,29.35,NNW,329,2.0,8.0,17,0.00,,,0.00,Weather View 32 v70,2013-05-06 19:31:00,
2013-05-06 15:36:00,77.9,26.4,29.35,SE,128,0.0,8.0,15,0.00,,,0.00,Weather View 32 v70,2013-05-06 19:36:00,
2013-05-06 15:41:00,77.7,30.7,29.35,North,5,2.0,8.0,18,0.00,,,0.00,Weather View 32 v70,2013-05-06 19:41:00,
2013-05-06 15:46:00,77.7,26.3,29.35,ENE,58,0.0,8.0,15,0.00,,,0.00,Weather View 32 v70,2013-05-06 19:46:00,
2013-05-06 15:51:00,77.7,30.7,29.32,ENE,69,2.0,8.0,18,0.00,,,0.00,Weather View 32 v70,2013-05-06 19:51:00,
2013-05-06 15:56:00,78.1,29.6,29.32,NE,52,0.0,8.0,17,0.00,,,0.00,Weather View 32 v70,2013-05-06 19:56:00,
2013-05-06 16:01:00,78.1,29.6,29.32,East,90,0.0,8.0,17,0.00,,,0.00,Weather View 32 v70,2013-05-06 20:01:00,
2013-05-06 16:06:00,78.3,29.8,29.32,ESE,108,3.0,8.0,17,0.00,,,0.00,Weather View 32 v70,2013-05-06 20:06:00,
2013-05-06 16:11:00,77.9,29.5,29.32,East,85,4.0,8.0,17,0.00,,,0.00,Weather View 32 v70,2013-05-06 20:11:00,
2013-05-06 16:16:00,78.1,29.6,29.32,ENE,65,3.0,8.0,17,0.00,,,0.00,Weather View 32 v70,2013-05-06 20:16:00,
2013-05-06 16:21:00,77.9,29.5,29.32,ESE,112,0.0,8.0,17,0.00,,,0.00,Weather View 32 v70,2013-05-06 20:21:00,
2013-05-06 16:26:00,76.8,30.0,29.32,SSE,166,0.0,6.0,18,0.00,,,0.00,Weather View 32 v70,2013-05-06 20:26:00,
2013-05-06 16:31:00,75.7,29.1,29.32,ESE,104,2.0,6.0,18,0.00,,,0.00,Weather View 32 v70,2013-05-06 20:31:00,
2013-05-06 16:36:00,75.9,29.3,29.32,ENE,77,4.0,6.0,18,0.00,,,0.00,Weather View 32 v70,2013-05-06 20:36:00,
2013-05-06 16:41:00,76.5,29.7,29.32,ESE,119,3.0,5.0,18,0.00,,,0.00,Weather View 32 v70,2013-05-06 20:41:00,
2013-05-06 16:46:00,76.1,32.0,29.32,ENE,78,4.0,5.0,20,0.00,,,0.00,Weather View 32 v70,2013-05-06 20:46:00,
2013-05-06 16:51:00,76.1,29.4,29.32,ENE,77,4.0,5.0,18,0.00,,,0.00,Weather View 32 v70,2013-05-06 20:51:00,
2013-05-06 16:56:00,76.3,29.6,29.32,ESE,105,3.0,6.0,18,0.00,,,0.00,Weather View 32 v70,2013-05-06 20:56:00,
2013-05-06 17:01:00,76.3,29.6,29.32,ESE,107,0.0,6.0,18,0.00,,,0.00,Weather View 32 v70,2013-05-06 21:01:00,
2013-05-06 17:06:00,76.1,32.0,29.29,ESE,109,4.0,6.0,20,0.00,,,0.00,Weather View 32 v70,2013-05-06 21:06:00,
2013-05-06 17:11:00,76.3,32.2,29.29,East,95,4.0,6.0,20,0.00,,,0.00,Weather View 32 v70,2013-05-06 21:11:00,
2013-05-06 17:16:00,76.3,32.2,29.29,NE,54,3.0,6.0,20,0.00,,,0.00,Weather View 32 v70,2013-05-06 21:16:00,
2013-05-06 17:21:00,76.5,32.3,29.29,East,79,4.0,6.0,20,0.00,,,0.00,Weather View 32 v70,2013-05-06 21:21:00,
2013-05-06 17:26:00,76.5,32.3,29.29,ENE,77,0.0,6.0,20,0.00,,,0.00,Weather View 32 v70,2013-05-06 21:26:00,
2013-05-06 17:31:00,76.3,32.2,29.29,ENE,71,0.0,6.0,20,0.00,,,0.00,Weather View 32 v70,2013-05-06 21:31:00,
2013-05-06 17:36:00,76.1,32.0,29.29,ESE,113,4.0,6.0,20,0.00,,,0.00,Weather View 32 v70,2013-05-06 21:36:00,
2013-05-06 17:41:00,76.1,32.0,29.29,East,79,3.0,6.0,20,0.00,,,0.00,Weather View 32 v70,2013-05-06 21:41:00,
2013-05-06 17:46:00,75.9,31.9,29.29,SE,130,0.0,6.0,20,0.00,,,0.00,Weather View 32 v70,2013-05-06 21:46:00,
2013-05-06 17:51:00,75.7,31.7,29.29,SE,135,0.0,6.0,20,0.00,,,0.00,Weather View 32 v70,2013-05-06 21:51:00,
2013-05-06 17:56:00,75.6,32.8,29.29,East,83,3.0,5.0,21,0.00,,,0.00,Weather View 32 v70,2013-05-06 21:56:00,
2013-05-06 18:01:00,75.4,32.6,29.29,SSE,153,3.0,5.0,21,0.00,,,0.00,Weather View 32 v70,2013-05-06 22:01:00,
2013-05-06 18:06:00,75.0,32.3,29.29,ESE,105,0.0,5.0,21,0.00,,,0.00,Weather View 32 v70,2013-05-06 22:06:00,
2013-05-06 18:11:00,75.0,32.3,29.29,ENE,69,3.0,5.0,21,0.00,,,0.00,Weather View 32 v70,2013-05-06 22:11:00,
2013-05-06 18:16:00,75.0,32.3,29.29,ENE,65,5.0,5.0,21,0.00,,,0.00,Weather View 32 v70,2013-05-06 22:16:00,
2013-05-06 18:21:00,75.0,32.3,29.29,ESE,104,2.0,5.0,21,0.00,,,0.00,Weather View 32 v70,2013-05-06 22:21:00,
2013-05-06 18:26:00,74.8,32.2,29.29,ESE,112,0.0,5.0,21,0.00,,,0.00,Weather View 32 v70,2013-05-06 22:26:00,
2013-05-06 18:31:00,74.5,31.9,29.29,SE,125,0.0,5.0,21,0.00,,,0.00,Weather View 32 v70,2013-05-06 22:31:00,
2013-05-06 18:36:00,73.8,32.4,29.29,SE,127,0.0,5.0,22,0.00,,,0.00,Weather View 32 v70,2013-05-06 22:36:00,
2013-05-06 18:41:00,73.2,32.0,29.29,ESE,112,3.0,5.0,22,0.00,,,0.00,Weather View 32 v70,2013-05-06 22:41:00,
2013-05-06 18:46:00,73.4,32.1,29.29,South,180,0.0,5.0,22,0.00,,,0.00,Weather View 32 v70,2013-05-06 22:46:00,
2013-05-06 18:51:00,73.0,31.8,29.29,South,180,0.0,5.0,22,0.00,,,0.00,Weather View 32 v70,2013-05-06 22:51:00,
2013-05-06 18:56:00,72.9,32.8,29.29,SE,142,2.0,5.0,23,0.00,,,0.00,Weather View 32 v70,2013-05-06 22:56:00,
2013-05-06 19:01:00,72.7,31.5,29.29,South,183,2.0,5.0,22,0.00,,,0.00,Weather View 32 v70,2013-05-06 23:01:00,
2013-05-06 19:06:00,72.3,32.4,29.29,SE,126,0.0,5.0,23,0.00,,,0.00,Weather View 32 v70,2013-05-06 23:06:00,
2013-05-06 19:11:00,72.5,32.5,29.29,SE,133,0.0,5.0,23,0.00,,,0.00,Weather View 32 v70,2013-05-06 23:11:00,
2013-05-06 19:16:00,72.3,32.4,29.29,SSE,152,0.0,5.0,23,0.00,,,0.00,Weather View 32 v70,2013-05-06 23:16:00,
2013-05-06 19:21:00,72.0,32.1,29.29,ESE,118,4.0,5.0,23,0.00,,,0.00,Weather View 32 v70,2013-05-06 23:21:00,
2013-05-06 19:26:00,72.0,32.1,29.29,ESE,117,3.0,5.0,23,0.00,,,0.00,Weather View 32 v70,2013-05-06 23:26:00,
2013-05-06 19:31:00,72.1,32.2,29.29,East,100,3.0,5.0,23,0.00,,,0.00,Weather View 32 v70,2013-05-06 23:31:00,
2013-05-06 19:36:00,72.0,32.1,29.29,East,101,2.0,5.0,23,0.00,,,0.00,Weather View 32 v70,2013-05-06 23:36:00,
2013-05-06 19:41:00,71.8,31.9,29.29,East,93,3.0,5.0,23,0.00,,,0.00,Weather View 32 v70,2013-05-06 23:41:00,
2013-05-06 19:46:00,71.2,31.4,29.29,SE,133,2.0,5.0,23,0.00,,,0.00,Weather View 32 v70,2013-05-06 23:46:00,
2013-05-06 19:51:00,70.7,31.0,29.32,ESE,104,3.0,5.0,23,0.00,,,0.00,Weather View 32 v70,2013-05-06 23:51:00,
2013-05-06 19:56:00,70.5,31.9,29.32,ESE,104,0.0,5.0,24,0.00,,,0.00,Weather View 32 v70,2013-05-06 23:56:00,
2013-05-06 20:01:00,70.3,31.7,29.32,ESE,119,3.0,5.0,24,0.00,,,0.00,Weather View 32 v70,2013-05-07 00:01:00,
2013-05-06 20:06:00,70.0,31.4,29.32,SE,132,0.0,5.0,24,0.00,,,0.00,Weather View 32 v70,2013-05-07 00:06:00,
2013-05-06 20:11:00,69.6,31.1,29.32,ESE,117,0.0,5.0,24,0.00,,,0.00,Weather View 32 v70,2013-05-07 00:11:00,
2013-05-06 20:16:00,69.3,30.8,29.32,ESE,117,0.0,5.0,24,0.00,,,0.00,Weather View 32 v70,2013-05-07 00:16:00,
2013-05-06 20:21:00,68.7,31.4,29.32,ESE,117,0.0,5.0,25,0.00,,,0.00,Weather View 32 v70,2013-05-07 00:21:00,
2013-05-06 20:26:00,68.2,31.9,29.32,ESE,117,0.0,5.0,26,0.00,,,0.00,Weather View 32 v70,2013-05-07 00:26:00,
2013-05-06 20:31:00,67.6,31.4,29.32,ESE,117,0.0,5.0,26,0.00,,,0.00,Weather View 32 v70,2013-05-07 00:31:00,
2013-05-06 20:36:00,67.1,31.9,29.32,ESE,117,0.0,4.0,27,0.00,,,0.00,Weather View 32 v70,2013-05-07 00:36:00,
2013-05-06 20:41:00,66.7,32.5,29.32,ESE,117,0.0,4.0,28,0.00,,,0.00,Weather View 32 v70,2013-05-07 00:41:00,
2013-05-06 20:46:00,66.2,33.8,29.32,ESE,117,0.0,4.0,30,0.00,,,0.00,Weather View 32 v70,2013-05-07 00:46:00,
2013-05-06 20:51:00,65.8,34.3,29.32,ESE,117,0.0,3.0,31,0.00,,,0.00,Weather View 32 v70,2013-05-07 00:51:00,
2013-05-06 20:56:00,65.5,34.8,29.32,ESE,117,0.0,3.0,32,0.00,,,0.00,Weather View 32 v70,2013-05-07 00:56:00,
2013-05-06 21:01:00,65.1,35.2,29.32,ESE,117,0.0,3.0,33,0.00,,,0.00,Weather View 32 v70,2013-05-07 01:01:00,
2013-05-06 21:06:00,64.8,34.9,29.32,ESE,117,0.0,3.0,33,0.00,,,0.00,Weather View 32 v70,2013-05-07 01:06:00,
2013-05-06 21:11:00,64.2,35.2,29.32,ESE,117,0.0,0.0,34,0.00,,,0.00,Weather View 32 v70,2013-05-07 01:11:00,
2013-05-06 21:16:00,63.5,35.3,29.32,ESE,117,0.0,0.0,35,0.00,,,0.00,Weather View 32 v70,2013-05-07 01:16:00,
2013-05-06 21:21:00,63.0,35.5,29.32,ESE,117,0.0,0.0,36,0.00,,,0.00,Weather View 32 v70,2013-05-07 01:21:00,
2013-05-06 21:26:00,62.6,35.2,29.32,ESE,117,0.0,0.0,36,0.00,,,0.00,Weather View 32 v70,2013-05-07 01:26:00,
2013-05-06 21:31:00,62.2,35.6,29.32,ESE,117,0.0,0.0,37,0.00,,,0.00,Weather View 32 v70,2013-05-07 01:31:00,
2013-05-06 21:36:00,61.9,35.9,29.35,ESE,117,0.0,0.0,38,0.00,,,0.00,Weather View 32 v70,2013-05-07 01:36:00,
2013-05-06 21:41:00,61.3,36.1,29.35,ESE,117,0.0,0.0,39,0.00,,,0.00,Weather View 32 v70,2013-05-07 01:41:00,
2013-05-06 21:46:00,61.2,36.6,29.35,ESE,117,0.0,0.0,40,0.00,,,0.00,Weather View 32 v70,2013-05-07 01:46:00,
2013-05-06 21:51:00,60.8,36.3,29.35,ESE,117,0.0,0.0,40,0.00,,,0.00,Weather View 32 v70,2013-05-07 01:51:00,
2013-05-06 21:56:00,60.4,35.3,29.35,ESE,117,0.0,0.0,39,0.00,,,0.00,Weather View 32 v70,2013-05-07 01:56:00,
2013-05-06 22:01:00,60.3,35.8,29.35,ESE,117,0.0,0.0,40,0.00,,,0.00,Weather View 32 v70,2013-05-07 02:01:00,
2013-05-06 22:06:00,60.1,35.6,29.35,ESE,117,0.0,0.0,40,0.00,,,0.00,Weather View 32 v70,2013-05-07 02:06:00,
2013-05-06 22:11:00,59.9,37.3,29.35,ESE,117,0.0,0.0,43,0.00,,,0.00,Weather View 32 v70,2013-05-07 02:11:00,
2013-05-06 22:16:00,59.5,37.0,29.35,ESE,117,0.0,0.0,43,0.00,,,0.00,Weather View 32 v70,2013-05-07 02:16:00,
2013-05-06 22:21:00,59.2,37.2,29.35,ESE,117,0.0,0.0,44,0.00,,,0.00,Weather View 32 v70,2013-05-07 02:21:00,
2013-05-06 22:26:00,58.8,37.5,29.35,ESE,117,0.0,0.0,45,0.00,,,0.00,Weather View 32 v70,2013-05-07 02:26:00,
2013-05-06 22:31:00,58.5,37.2,29.35,ESE,117,0.0,0.0,45,0.00,,,0.00,Weather View 32 v70,2013-05-07 02:31:00,
2013-05-06 22:36:00,58.1,37.4,29.35,ESE,117,0.0,0.0,46,0.00,,,0.00,Weather View 32 v70,2013-05-07 02:36:00,
2013-05-06 22:41:00,57.9,37.2,29.35,ESE,117,0.0,0.0,46,0.00,,,0.00,Weather View 32 v70,2013-05-07 02:41:00,
2013-05-06 22:46:00,57.7,36.5,29.35,ESE,117,0.0,0.0,45,0.00,,,0.00,Weather View 32 v70,2013-05-07 02:46:00,
2013-05-06 22:51:00,57.6,36.3,29.35,ESE,117,0.0,0.0,45,0.00,,,0.00,Weather View 32 v70,2013-05-07 02:51:00,
2013-05-06 22:56:00,57.4,36.2,29.35,ESE,117,0.0,0.0,45,0.00,,,0.00,Weather View 32 v70,2013-05-07 02:56:00,
2013-05-06 23:01:00,57.4,36.7,29.35,ESE,117,0.0,0.0,46,0.00,,,0.00,Weather View 32 v70,2013-05-07 03:01:00,
2013-05-06 23:06:00,57.2,36.6,29.35,ESE,117,0.0,0.0,46,0.00,,,0.00,Weather View 32 v70,2013-05-07 03:06:00,
2013-05-06 23:11:00,57.2,36.6,29.35,ESE,117,0.0,0.0,46,0.00,,,0.00,Weather View 32 v70,2013-05-07 03:11:00,
2013-05-06 23:16:00,57.0,37.5,29.35,ESE,117,0.0,0.0,48,0.00,,,0.00,Weather View 32 v70,2013-05-07 03:16:00,
2013-05-06 23:21:00,57.0,36.9,29.35,ESE,117,0.0,0.0,47,0.00,,,0.00,Weather View 32 v70,2013-05-07 03:21:00,
2013-05-06 23:26:00,56.8,37.8,29.35,ESE,117,0.0,0.0,49,0.00,,,0.00,Weather View 32 v70,2013-05-07 03:26:00,
2013-05-06 23:31:00,56.3,36.8,29.35,ESE,117,0.0,0.0,48,0.00,,,0.00,Weather View 32 v70,2013-05-07 03:31:00,
2013-05-06 23:36:00,55.8,36.3,29.35,ESE,117,0.0,0.0,48,0.00,,,0.00,Weather View 32 v70,2013-05-07 03:36:00,
2013-05-06 23:41:00,55.4,37.5,29.35,ESE,117,0.0,0.0,51,0.00,,,0.00,Weather View 32 v70,2013-05-07 03:41:00,
2013-05-06 23:46:00,55.2,37.9,29.35,ESE,117,0.0,0.0,52,0.00,,,0.00,Weather View 32 v70,2013-05-07 03:46:00,
2013-05-06 23:51:00,55.0,37.7,29.35,ESE,117,0.0,0.0,52,0.00,,,0.00,Weather View 32 v70,2013-05-07 03:51:00,
2013-05-06 23:56:00,54.9,38.0,29.35,ESE,117,0.0,0.0,53,0.00,,,0.00,Weather View 32 v70,2013-05-07 03:56:00,